»·PEaware :: N8727N KLAX-KSNA

N8727N :: KLAX-KSNA

FLIGHT INFORMATION

Flight Status: Arrived
Operator: Privately registered:
United States
More flights under this callsign
Pilot: Jonas V. (19294)
Aircraft: PILATUS PC-12 EAGLE
(PC12)
More flights by this aircraft type
Origin: KLAX Los Angeles Intl
United States
Destination: KSNA John Wayne-Orange Co
United States
More flights between these airports :: More routes between these airports
Route: +SLI8 SLI
File this flight plan on PilotEdge
Remarks: I6 RATING
Altitude:
(Current/Filed)
5,000ft
Speed:
(Current/Filed)
210kts
Departed: 23-Dec-18 01:10 PM
Arrived: 23-Dec-18 01:42 PM
Distance/Time
Traveled:
31nm/0:32
Distance/Time
To Go:
Arrived

Flight Plot

Page will automatically refresh every two minutes.

Flight plan parsing failed; only flown route is shown


Map Options




Map Legend


Flown Route
Filed Route
Departure Airport
Arrival Airport
Navaid (VOR, NDB)
Fix

Horizontal Profiles

Position Reports

Time Latitude Longitude Heading Altitude Ground
Speed
23-Dec-18 12:49 33.933730 -118.394730 89 129ft 0kts
23-Dec-18 12:50 33.933730 -118.394730 89 129ft 0kts
23-Dec-18 12:51 33.933730 -118.394730 89 129ft 0kts
23-Dec-18 12:52 33.933730 -118.394730 89 129ft 0kts
23-Dec-18 12:53 33.933730 -118.394730 89 129ft 0kts
23-Dec-18 12:54 33.933730 -118.394730 89 129ft 0kts
23-Dec-18 12:55 33.933730 -118.394730 89 129ft 0kts
23-Dec-18 12:56 33.933730 -118.394730 89 129ft 0kts
23-Dec-18 12:56 33.933730 -118.394730 89 129ft 0kts
23-Dec-18 12:57 33.933730 -118.394730 89 129ft 0kts
23-Dec-18 12:59 33.933730 -118.394730 89 129ft 0kts
23-Dec-18 12:59 33.933730 -118.394730 89 129ft 0kts
23-Dec-18 13:01 33.933730 -118.394730 89 129ft 0kts
23-Dec-18 13:01 33.933730 -118.394730 89 129ft 0kts
23-Dec-18 13:02 33.933730 -118.394730 89 129ft 0kts
23-Dec-18 13:03 33.933730 -118.394730 89 129ft 0kts
23-Dec-18 13:04 33.934009 -118.394364 37 129ft 10kts
23-Dec-18 13:05 33.935321 -118.390681 82 129ft 23kts
23-Dec-18 13:06 33.936092 -118.383208 80 129ft 19kts
23-Dec-18 13:07 33.936392 -118.382798 15 129ft 0kts
23-Dec-18 13:08 33.936680 -118.382773 351 129ft 11kts
23-Dec-18 13:09 33.935497 -118.401816 264 499ft 138kts
23-Dec-18 13:10 33.930698 -118.445823 261 3131ft 140kts
23-Dec-18 13:11 33.901852 -118.473322 213 4969ft 185kts
23-Dec-18 13:12 33.856952 -118.504983 200 4970ft 242kts
23-Dec-18 13:13 33.800804 -118.498120 172 4971ft 253kts
23-Dec-18 13:14 33.741758 -118.487817 172 4971ft 250kts
23-Dec-18 13:15 33.688498 -118.474024 137 4980ft 247kts
23-Dec-18 13:16 33.663106 -118.413149 112 4974ft 246kts
23-Dec-18 13:17 33.640274 -118.350148 112 4973ft 246kts
23-Dec-18 13:18 33.651208 -118.281131 59 4970ft 239kts
23-Dec-18 13:19 33.682182 -118.228205 53 4965ft 239kts
23-Dec-18 13:20 33.712992 -118.175635 53 4961ft 239kts
23-Dec-18 13:21 33.742716 -118.124783 53 4810ft 242kts
23-Dec-18 13:22 33.776305 -118.067086 53 3975ft 221kts
23-Dec-18 13:23 33.801975 -118.009163 62 3954ft 209kts
23-Dec-18 13:24 33.826195 -117.949501 62 3954ft 212kts
23-Dec-18 13:25 33.848947 -117.893239 62 3953ft 213kts
23-Dec-18 13:26 33.872529 -117.834804 62 3965ft 213kts
23-Dec-18 13:27 33.896397 -117.775581 62 3959ft 216kts
23-Dec-18 13:28 33.920180 -117.717259 60 3917ft 213kts
23-Dec-18 13:29 33.959150 -117.678068 28 3796ft 206kts
23-Dec-18 13:30 34.004181 -117.666452 307 3452ft 190kts
23-Dec-18 13:31 33.979164 -117.696476 163 3455ft 195kts
23-Dec-18 13:32 33.935328 -117.704034 207 3411ft 184kts
23-Dec-18 13:33 33.896897 -117.728079 208 3314ft 158kts
23-Dec-18 13:34 33.859114 -117.752073 208 3332ft 166kts
23-Dec-18 13:35 33.821459 -117.776134 208 3074ft 163kts
23-Dec-18 13:36 33.784598 -117.799645 208 2469ft 154kts
23-Dec-18 13:37 33.754302 -117.818871 207 1718ft 126kts
23-Dec-18 13:38 33.725369 -117.837250 207 1061ft 119kts
23-Dec-18 13:39 33.697938 -117.854584 207 471ft 120kts
23-Dec-18 13:40 33.675352 -117.869084 209 60ft 50kts
23-Dec-18 13:41 33.674284 -117.871215 221 60ft 12kts
23-Dec-18 13:42 33.672827 -117.872962 204 60ft 0kts
23-Dec-18 13:43 33.672827 -117.872962 205 60ft 0kts

Navigation Log

Ident Type
Flight plan parsing failed, navigation log unavailable